Time;durP1;ratioP1;P1;durP2;ratioP2;P2;SDS_P1;SDS_P2;PMS_P1;PMS_P2;Temp;Humidity;BMP_temperature;BMP_pressure;BME280_temperature;BME280_humidity;BME280_pressure;Samples;Min_cycle;Max_cycle;Signal;HPM_P1;HPM_P2
2023/08/15 04:02:24;;;;;;;3.83;3.60;;;19.40;99.90;;;;;;5017829;23;20623;-68
2023/08/15 04:04:50;;;;;;;4.67;4.37;;;19.40;99.90;;;;;;4898731;29;20464;-70
2023/08/15 04:07:17;;;;;;;5.63;5.23;;;19.40;99.90;;;;;;4898806;29;20475;-68
2023/08/15 04:09:43;;;;;;;6.00;4.73;;;19.40;99.90;;;;;;4899081;29;20478;-68
2023/08/15 04:12:10;;;;;;;6.73;4.53;;;19.40;99.90;;;;;;4897806;29;20490;-67
2023/08/15 04:14:37;;;;;;;5.17;4.60;;;19.30;99.90;;;;;;4898286;29;20475;-68
2023/08/15 04:17:05;;;;;;;4.40;4.10;;;19.40;99.90;;;;;;4897164;29;20476;-68
2023/08/15 04:19:33;;;;;;;5.57;5.17;;;19.30;99.90;;;;;;4898941;29;20505;-67
2023/08/15 04:22:00;;;;;;;4.20;4.00;;;19.40;99.90;;;;;;4898587;29;20494;-67
2023/08/15 04:24:28;;;;;;;5.17;4.67;;;19.40;99.90;;;;;;4898983;29;20467;-67
2023/08/15 04:26:55;;;;;;;11.57;5.83;;;19.40;99.90;;;;;;4898857;29;20465;-67
2023/08/15 04:29:21;;;;;;;5.17;4.70;;;19.40;99.90;;;;;;4900666;29;20468;-69
2023/08/15 04:31:48;;;;;;;6.57;5.97;;;19.50;99.90;;;;;;4899746;29;20891;-67
2023/08/15 04:34:15;;;;;;;5.60;5.10;;;19.50;99.90;;;;;;4898710;29;20491;-68
2023/08/15 04:36:46;;;;;;;4.57;4.27;;;19.50;99.90;;;;;;4898951;29;20506;-67
2023/08/15 04:39:13;;;;;;;5.10;4.80;;;19.60;99.90;;;;;;4899376;29;21048;-68
2023/08/15 04:41:41;;;;;;;5.93;5.43;;;19.60;99.90;;;;;;4898557;29;20487;-68
2023/08/15 04:44:08;;;;;;;3.90;3.70;;;19.60;99.90;;;;;;4898585;29;20471;-69
2023/08/15 04:46:34;;;;;;;7.03;6.53;;;19.60;99.90;;;;;;4899030;29;20477;-68
2023/08/15 04:49:01;;;;;;;6.40;5.20;;;19.70;99.90;;;;;;4898708;29;20471;-67
2023/08/15 04:51:28;;;;;;;6.00;5.57;;;20.00;99.90;;;;;;4892674;29;21077;-67
2023/08/15 04:53:56;;;;;;;5.90;5.23;;;20.40;99.90;;;;;;4895294;29;20483;-68
2023/08/15 04:56:23;;;;;;;5.10;4.70;;;20.70;99.90;;;;;;4898333;29;20518;-67
2023/08/15 04:58:49;;;;;;;4.97;4.67;;;20.80;99.90;;;;;;4898542;29;20512;-67
2023/08/15 05:01:16;;;;;;;5.20;4.80;;;21.00;99.90;;;;;;4896598;29;20508;-68
2023/08/15 05:03:43;;;;;;;4.17;3.90;;;21.20;99.90;;;;;;4895436;29;20963;-67
2023/08/15 05:06:09;;;;;;;4.73;4.50;;;21.40;99.90;;;;;;4897421;29;20557;-68
2023/08/15 05:08:36;;;;;;;4.47;4.17;;;21.50;99.90;;;;;;4898426;29;20877;-67
2023/08/15 05:11:04;;;;;;;6.40;3.70;;;21.40;99.90;;;;;;4896877;29;20519;-67
2023/08/15 05:13:31;;;;;;;3.63;3.53;;;21.40;99.90;;;;;;4898109;29;20974;-68
2023/08/15 05:15:58;;;;;;;6.40;4.83;;;21.30;99.90;;;;;;4897702;29;20470;-67
2023/08/15 05:18:24;;;;;;;4.40;4.03;;;21.30;99.90;;;;;;4898241;29;20544;-68
2023/08/15 05:20:51;;;;;;;4.30;3.30;;;21.30;99.90;;;;;;4897137;29;20498;-68
2023/08/15 05:23:18;;;;;;;3.87;3.67;;;21.30;99.90;;;;;;4897621;29;20484;-67
2023/08/15 05:25:44;;;;;;;4.10;3.80;;;21.30;99.90;;;;;;4898322;29;20466;-67
2023/08/15 05:28:13;;;;;;;3.27;3.20;;;21.20;99.90;;;;;;4897976;29;20822;-68
2023/08/15 05:30:40;;;;;;;5.97;3.80;;;21.30;99.90;;;;;;4896698;29;20487;-68
2023/08/15 05:33:06;;;;;;;3.83;3.33;;;21.30;99.90;;;;;;4897105;29;20495;-68
2023/08/15 05:35:34;;;;;;;3.57;3.37;;;21.30;99.90;;;;;;4897695;29;20464;-68
2023/08/15 05:38:01;;;;;;;3.60;3.30;;;21.40;99.90;;;;;;4895551;29;20852;-68
2023/08/15 05:40:29;;;;;;;4.23;3.60;;;21.40;99.90;;;;;;4897048;29;20466;-68
2023/08/15 05:42:56;;;;;;;3.67;3.57;;;21.40;99.90;;;;;;4896748;29;20512;-68
2023/08/15 05:45:24;;;;;;;4.33;4.00;;;21.40;99.90;;;;;;4897376;29;20958;-67
2023/08/15 05:47:51;;;;;;;3.57;3.37;;;21.50;99.90;;;;;;4897616;29;20470;-67
2023/08/15 05:50:18;;;;;;;4.60;4.30;;;21.70;99.90;;;;;;4896704;29;20496;-67
2023/08/15 05:52:44;;;;;;;3.70;3.50;;;21.80;99.90;;;;;;4896203;29;20470;-67
2023/08/15 05:55:11;;;;;;;3.90;3.70;;;22.00;99.90;;;;;;4897607;29;20473;-67
2023/08/15 05:57:38;;;;;;;3.40;3.20;;;22.10;99.90;;;;;;4897723;29;20469;-68
2023/08/15 06:00:06;;;;;;;5.47;3.17;;;22.10;99.90;;;;;;4896331;29;20472;-70
2023/08/15 06:02:38;;;;;;;3.90;3.60;;;22.10;99.90;;;;;;4893683;29;21004;-67
2023/08/15 06:05:06;;;;;;;3.97;3.67;;;22.10;99.90;;;;;;4896680;29;20537;-67
2023/08/15 06:07:32;;;;;;;3.47;3.27;;;22.20;99.90;;;;;;4897666;29;20461;-68
2023/08/15 06:09:59;;;;;;;4.40;4.00;;;22.30;99.90;;;;;;4895987;29;20464;-68
2023/08/15 06:12:26;;;;;;;3.23;3.13;;;22.70;99.90;;;;;;4896421;29;20235;-69
2023/08/15 06:14:52;;;;;;;3.00;2.80;;;22.90;99.90;;;;;;4894820;29;20479;-68
2023/08/15 06:17:19;;;;;;;3.90;3.63;;;23.30;99.90;;;;;;4894732;29;20511;-67
2023/08/15 06:19:47;;;;;;;2.80;2.67;;;23.80;99.90;;;;;;4895964;29;20948;-69
2023/08/15 06:22:15;;;;;;;2.67;2.50;;;24.40;99.90;;;;;;4894617;29;20992;-68
2023/08/15 06:24:41;;;;;;;3.23;3.13;;;24.90;99.90;;;;;;4896041;29;20993;-66
2023/08/15 06:27:08;;;;;;;2.30;2.20;;;25.60;99.90;;;;;;4894711;29;20498;-69
2023/08/15 06:29:35;;;;;;;3.43;3.27;;;26.30;99.90;;;;;;4896992;29;20463;-67
2023/08/15 06:32:01;;;;;;;2.23;2.23;;;26.80;99.90;;;;;;4893256;29;20487;-66
2023/08/15 06:34:28;;;;;;;2.80;2.70;;;27.30;99.90;;;;;;4895609;29;20835;-67
2023/08/15 06:36:56;;;;;;;3.03;2.83;;;27.70;99.90;;;;;;4896551;29;20483;-68
2023/08/15 06:39:23;;;;;;;2.00;2.00;;;27.80;99.90;;;;;;4897007;29;20472;-68
2023/08/15 06:41:49;;;;;;;2.33;2.23;;;27.60;99.90;;;;;;4894365;29;20518;-68
2023/08/15 06:44:16;;;;;;;2.80;2.70;;;26.90;99.90;;;;;;4895727;29;20475;-67
2023/08/15 06:46:43;;;;;;;2.60;2.57;;;26.30;99.90;;;;;;4895371;29;20561;-67
2023/08/15 06:49:09;;;;;;;2.60;2.50;;;26.10;99.90;;;;;;4894965;29;20479;-67
2023/08/15 06:51:36;;;;;;;3.40;3.20;;;25.80;99.90;;;;;;4894330;29;20530;-67
2023/08/15 06:54:05;;;;;;;2.83;2.73;;;25.60;99.90;;;;;;4895928;29;20467;-68
2023/08/15 06:56:31;;;;;;;3.37;3.07;;;25.60;99.90;;;;;;4895428;29;20483;-67
2023/08/15 06:58:59;;;;;;;2.90;2.80;;;25.50;99.90;;;;;;4895545;29;20962;-67
2023/08/15 07:01:25;;;;;;;3.50;3.30;;;25.50;99.90;;;;;;4894063;29;20503;-69
2023/08/15 07:03:52;;;;;;;2.13;2.13;;;25.50;99.90;;;;;;4894947;29;21061;-66
2023/08/15 07:06:19;;;;;;;4.80;3.00;;;25.50;99.90;;;;;;4893536;29;20475;-66
2023/08/15 07:08:46;;;;;;;3.50;3.40;;;25.40;99.90;;;;;;4892517;29;20469;-67
2023/08/15 07:11:14;;;;;;;3.20;3.00;;;25.20;99.90;;;;;;4896373;29;20500;-67
2023/08/15 07:13:40;;;;;;;2.80;2.70;;;25.20;99.90;;;;;;4895968;29;20458;-67
2023/08/15 07:16:07;;;;;;;2.50;2.40;;;25.20;99.90;;;;;;4895999;29;20933;-67
2023/08/15 07:18:34;;;;;;;3.00;2.77;;;25.50;99.90;;;;;;4896147;29;20474;-66
2023/08/15 07:21:02;;;;;;;2.77;2.77;;;26.00;99.90;;;;;;4897219;29;20494;-66
2023/08/15 07:23:30;;;;;;;2.80;2.70;;;26.20;99.90;;;;;;4899577;29;20930;-66
2023/08/15 07:25:57;;;;;;;2.93;2.80;;;26.20;99.90;;;;;;4908118;29;20462;-66
2023/08/15 07:28:25;;;;;;;2.83;2.73;;;26.30;99.90;;;;;;4918225;29;20953;-67
2023/08/15 07:30:52;;;;;;;2.37;2.37;;;26.20;99.90;;;;;;4899787;29;20483;-66
2023/08/15 07:33:19;;;;;;;2.80;2.70;;;26.20;99.90;;;;;;4899672;29;20459;-65
2023/08/15 07:35:45;;;;;;;2.53;2.53;;;26.00;99.90;;;;;;4900105;29;20474;-66
2023/08/15 07:38:13;;;;;;;2.97;2.60;;;25.90;99.90;;;;;;4898084;29;20482;-65
2023/08/15 07:40:39;;;;;;;1.77;1.77;;;25.70;99.90;;;;;;4895486;29;20496;-66
2023/08/15 07:43:06;;;;;;;2.97;2.63;;;25.60;99.90;;;;;;4900062;29;20849;-67
2023/08/15 07:45:34;;;;;;;2.03;1.93;;;25.20;99.90;;;;;;4895677;29;20481;-66
2023/08/15 07:48:01;;;;;;;2.60;2.50;;;25.00;99.90;;;;;;4893655;29;20479;-67
2023/08/15 07:50:29;;;;;;;3.10;2.83;;;24.70;99.90;;;;;;4897183;29;20999;-67
2023/08/15 07:52:58;;;;;;;2.20;2.20;;;24.50;99.90;;;;;;4898531;29;20964;-67
2023/08/15 07:55:26;;;;;;;2.87;2.67;;;24.30;99.90;;;;;;4899296;29;20488;-66
2023/08/15 07:57:52;;;;;;;3.03;2.93;;;24.10;99.90;;;;;;4897582;29;20476;-68
2023/08/15 08:00:19;;;;;;;4.17;2.13;;;24.00;99.90;;;;;;4896025;29;20460;-67
2023/08/15 08:02:47;;;;;;;3.10;2.83;;;23.80;99.90;;;;;;4899160;29;20495;-66
2023/08/15 08:05:15;;;;;;;3.20;3.00;;;23.70;99.90;;;;;;4898058;29;20958;-67
2023/08/15 08:07:43;;;;;;;2.90;2.80;;;23.60;99.90;;;;;;4897960;29;20813;-69
2023/08/15 08:10:10;;;;;;;2.77;2.57;;;23.40;99.90;;;;;;4893039;29;20477;-67
2023/08/15 08:12:37;;;;;;;4.10;3.70;;;23.20;99.90;;;;;;4898507;29;20489;-65
2023/08/15 08:15:04;;;;;;;3.20;3.10;;;22.90;99.90;;;;;;4897478;29;20525;-65
2023/08/15 08:17:31;;;;;;;3.03;2.90;;;22.80;99.90;;;;;;4898729;29;20548;-64
2023/08/15 08:20:00;;;;;;;3.33;3.20;;;22.60;99.90;;;;;;4897912;29;20463;-64
2023/08/15 08:22:27;;;;;;;3.20;3.00;;;22.50;99.90;;;;;;4895801;29;20502;-63
2023/08/15 08:24:54;;;;;;;3.33;3.03;;;22.40;99.90;;;;;;4891534;29;20481;-63
2023/08/15 08:27:20;;;;;;;3.20;3.00;;;22.30;99.90;;;;;;4896093;29;20500;-63
2023/08/15 08:29:47;;;;;;;3.63;3.53;;;22.30;99.90;;;;;;4897882;29;20460;-64
2023/08/15 08:32:14;;;;;;;4.50;4.27;;;22.40;99.90;;;;;;4896976;29;21863;-65
2023/08/15 08:34:41;;;;;;;4.87;3.30;;;22.40;99.90;;;;;;4894937;29;20470;-66
2023/08/15 08:37:09;;;;;;;3.57;3.30;;;22.50;99.90;;;;;;4891894;29;20470;-68
2023/08/15 08:39:36;;;;;;;4.63;4.10;;;22.60;99.90;;;;;;4891457;29;20478;-67
2023/08/15 08:42:04;;;;;;;3.80;3.40;;;22.60;99.90;;;;;;4895351;29;20505;-67
2023/08/15 08:44:32;;;;;;;3.83;3.23;;;22.60;99.90;;;;;;4894818;29;20666;-67
2023/08/15 08:46:59;;;;;;;3.43;3.23;;;22.60;99.90;;;;;;4893792;29;20474;-68
2023/08/15 08:49:27;;;;;;;3.57;3.40;;;22.60;99.90;;;;;;4890348;29;20552;-67
2023/08/15 08:51:56;;;;;;;4.97;3.57;;;22.60;99.90;;;;;;4894704;29;20954;-67
2023/08/15 08:54:24;;;;;;;3.10;3.00;;;22.60;99.90;;;;;;4887400;29;20505;-67
2023/08/15 08:56:54;;;;;;;3.13;3.03;;;22.60;99.90;;;;;;4887667;29;20467;-67
2023/08/15 08:59:23;;;;;;;6.63;3.93;;;22.60;99.90;;;;;;4895537;29;20488;-66
2023/08/15 09:01:50;;;;;;;4.10;3.90;;;22.60;99.90;;;;;;4892844;29;20532;-67
2023/08/15 09:04:19;;;;;;;3.77;3.57;;;22.60;99.90;;;;;;4889007;29;20834;-66
2023/08/15 09:06:46;;;;;;;3.37;3.17;;;22.60;99.90;;;;;;4887902;29;20568;-67
2023/08/15 09:09:13;;;;;;;4.20;3.30;;;22.60;99.90;;;;;;4894743;29;20477;-67
2023/08/15 09:11:41;;;;;;;3.87;3.67;;;22.50;99.90;;;;;;4895061;29;20497;-67
2023/08/15 09:14:08;;;;;;;4.00;3.80;;;22.40;99.90;;;;;;4897064;29;20969;-66
2023/08/15 09:16:34;;;;;;;4.00;3.70;;;22.50;99.90;;;;;;4895825;29;20489;-67
2023/08/15 09:19:02;;;;;;;3.90;3.40;;;22.50;99.90;;;;;;4887733;29;20476;-67
2023/08/15 09:21:29;;;;;;;3.07;2.87;;;22.60;99.90;;;;;;4893720;29;21113;-67
2023/08/15 09:23:57;;;;;;;5.83;3.10;;;22.70;99.90;;;;;;4883569;29;20515;-66
2023/08/15 09:26:25;;;;;;;3.80;3.50;;;22.80;99.90;;;;;;4890898;29;20569;-67
2023/08/15 09:28:53;;;;;;;4.73;4.43;;;23.10;99.90;;;;;;4896233;29;20844;-68
2023/08/15 09:31:20;;;;;;;3.10;3.00;;;23.20;99.90;;;;;;4891888;29;20495;-67
2023/08/15 09:33:47;;;;;;;3.40;3.10;;;23.40;99.90;;;;;;4894141;29;20468;-67
2023/08/15 09:36:15;;;;;;;3.90;3.70;;;23.50;99.90;;;;;;4894620;29;20989;-67
2023/08/15 09:38:41;;;;;;;3.13;2.93;;;23.60;99.90;;;;;;4895341;29;20214;-68
2023/08/15 10:00:16;;;;;;;3.00;2.80;;;23.60;99.90;;;;;;5124607;27;20958;-67
2023/08/15 10:02:47;;;;;;;2.73;2.63;;;24.10;99.90;;;;;;5100010;28;20460;-67
2023/08/15 10:05:17;;;;;;;2.17;2.17;;;24.00;99.90;;;;;;5096394;28;20493;-67
2023/08/15 10:07:46;;;;;;;4.77;2.80;;;23.80;99.90;;;;;;5098222;28;20484;-67
2023/08/15 10:10:14;;;;;;;3.20;3.00;;;23.90;99.90;;;;;;5097526;28;20492;-67
2023/08/15 10:12:42;;;;;;;2.13;2.13;;;24.00;99.90;;;;;;5094261;28;20461;-68
2023/08/15 10:15:11;;;;;;;2.40;2.37;;;24.00;99.90;;;;;;5104478;28;20495;-67
2023/08/15 10:17:39;;;;;;;3.57;3.30;;;24.10;99.90;;;;;;5102385;28;20821;-67
2023/08/15 10:20:10;;;;;;;2.70;2.50;;;24.20;99.90;;;;;;5099544;28;20487;-67
2023/08/15 10:22:38;;;;;;;3.33;3.10;;;24.30;99.90;;;;;;5090304;28;20478;-68
2023/08/15 10:25:33;;;;;;;2.67;2.60;;;24.30;99.90;;;;;;5102940;28;21007;-68
2023/08/15 10:28:00;;;;;;;2.60;2.50;;;24.40;99.90;;;;;;5099692;28;20492;-68
2023/08/15 10:30:33;;;;;;;2.50;2.40;;;24.50;99.90;;;;;;5098367;28;20525;-68
2023/08/15 10:33:00;;;;;;;2.47;2.47;;;24.50;99.90;;;;;;5089024;28;20555;-68
2023/08/15 10:35:28;;;;;;;7.23;3.37;;;24.60;99.90;;;;;;5097681;28;20963;-68
2023/08/15 10:37:57;;;;;;;5.20;2.47;;;24.50;99.90;;;;;;5102666;28;20464;-68
2023/08/15 10:40:37;;;;;;;2.73;2.53;;;24.60;99.90;;;;;;5100289;28;20485;-68
2023/08/15 10:43:07;;;;;;;3.83;3.67;;;24.70;99.90;;;;;;5097847;28;20471;-68
2023/08/15 10:45:41;;;;;;;2.50;2.30;;;24.70;99.90;;;;;;5103859;28;20473;-68
2023/08/15 10:48:09;;;;;;;2.50;2.50;;;24.80;99.90;;;;;;5091732;28;20481;-68
2023/08/15 10:50:42;;;;;;;1.80;1.80;;;24.90;99.90;;;;;;5089170;28;20505;-68
2023/08/15 10:53:09;;;;;;;2.47;2.13;;;24.90;99.90;;;;;;5100728;28;20829;-68
2023/08/15 10:55:39;;;;;;;1.90;1.90;;;24.90;99.90;;;;;;5104398;28;20547;-67
2023/08/15 10:58:08;;;;;;;3.50;3.20;;;25.00;99.90;;;;;;5106668;28;20471;-67
2023/08/15 11:00:36;;;;;;;2.37;2.20;;;25.10;99.90;;;;;;5085405;28;20496;-67
2023/08/15 11:03:06;;;;;;;2.50;2.47;;;25.30;99.90;;;;;;5086916;28;20464;-68
2023/08/15 11:05:33;;;;;;;1.60;1.60;;;25.30;99.90;;;;;;5074628;28;20456;-69
2023/08/15 11:08:13;;;;;;;1.97;1.87;;;25.50;99.90;;;;;;5078376;28;20468;-70
2023/08/15 11:10:44;;;;;;;1.47;1.47;;;25.60;99.90;;;;;;5071770;28;20983;-69
2023/08/15 11:13:11;;;;;;;2.63;2.30;;;25.80;99.90;;;;;;5079790;28;20911;-67
2023/08/15 11:15:38;;;;;;;2.87;1.80;;;26.00;99.90;;;;;;5087701;28;20464;-67
2023/08/15 11:18:06;;;;;;;1.87;1.87;;;26.00;99.90;;;;;;5088285;28;20456;-67
2023/08/15 11:20:33;;;;;;;1.90;1.90;;;25.90;99.90;;;;;;5088541;28;20488;-68
2023/08/15 11:23:01;;;;;;;2.20;2.20;;;25.90;99.90;;;;;;5085791;28;20461;-67
2023/08/15 11:25:27;;;;;;;2.23;2.13;;;25.80;99.90;;;;;;5075797;28;20461;-68
2023/08/15 11:27:54;;;;;;;1.80;1.80;;;25.80;99.90;;;;;;5089327;28;20472;-67
2023/08/15 11:30:21;;;;;;;1.60;1.60;;;25.90;99.90;;;;;;5090376;28;20480;-67
2023/08/15 11:32:49;;;;;;;2.67;2.47;;;26.00;99.90;;;;;;5083220;28;20482;-67
2023/08/15 11:35:18;;;;;;;2.40;2.30;;;26.10;99.90;;;;;;5085652;28;20530;-68
2023/08/15 11:37:44;;;;;;;2.50;2.40;;;26.10;99.90;;;;;;5079357;28;21013;-68
2023/08/15 11:40:11;;;;;;;2.73;2.63;;;26.20;99.90;;;;;;5079930;28;20503;-68
2023/08/15 11:42:38;;;;;;;2.70;2.60;;;26.30;99.90;;;;;;5084623;28;20958;-68
2023/08/15 11:45:17;;;;;;;2.80;2.40;;;26.30;99.90;;;;;;5080385;28;20466;-68
2023/08/15 11:47:55;;;;;;;2.70;2.60;;;26.30;99.90;;;;;;5078392;28;20482;-68
2023/08/15 11:50:25;;;;;;;2.13;2.13;;;26.30;99.90;;;;;;5079179;28;20514;-69
2023/08/15 11:52:52;;;;;;;3.23;2.73;;;26.40;99.90;;;;;;5080732;28;20456;-68
2023/08/15 11:55:19;;;;;;;3.50;3.33;;;26.50;99.90;;;;;;5079685;28;20859;-68
2023/08/15 11:57:46;;;;;;;2.87;2.77;;;26.50;99.90;;;;;;5082900;28;21001;-68
2023/08/15 12:00:15;;;;;;;2.40;2.33;;;26.60;99.90;;;;;;5083657;28;20877;-68
2023/08/15 12:02:43;;;;;;;2.60;2.60;;;26.60;99.90;;;;;;5081067;28;20465;-68
2023/08/15 12:05:12;;;;;;;2.97;2.87;;;26.50;99.90;;;;;;5077697;28;21052;-68
2023/08/15 12:07:40;;;;;;;3.50;3.40;;;26.30;99.90;;;;;;5081932;28;20458;-68
2023/08/15 12:10:08;;;;;;;3.40;3.27;;;26.40;99.90;;;;;;5081282;28;20491;-69
2023/08/15 12:12:40;;;;;;;2.50;2.50;;;26.40;99.90;;;;;;5079962;28;20458;-68
2023/08/15 12:15:08;;;;;;;3.40;3.20;;;26.60;99.90;;;;;;5082520;28;20549;-68
2023/08/15 12:17:35;;;;;;;3.13;2.70;;;26.60;99.90;;;;;;5085092;28;20470;-68
2023/08/15 12:20:03;;;;;;;3.50;3.20;;;26.70;99.90;;;;;;5080049;28;20479;-67
2023/08/15 12:22:30;;;;;;;3.13;2.93;;;26.60;99.90;;;;;;5076000;28;20509;-67
2023/08/15 12:24:58;;;;;;;3.20;3.10;;;26.80;99.90;;;;;;5077751;28;20466;-69
2023/08/15 12:27:25;;;;;;;2.67;2.67;;;27.00;99.90;;;;;;5081402;28;20470;-68
2023/08/15 12:29:51;;;;;;;3.40;3.20;;;27.20;99.90;;;;;;5080539;28;21546;-69
2023/08/15 12:32:19;;;;;;;3.33;3.13;;;27.20;99.90;;;;;;5083050;28;20454;-68
2023/08/15 12:34:45;;;;;;;3.60;3.40;;;27.00;99.90;;;;;;5087441;28;20462;-67
2023/08/15 12:37:12;;;;;;;4.00;3.80;;;26.90;99.90;;;;;;5076899;28;20460;-68
2023/08/15 12:39:39;;;;;;;4.60;3.63;;;26.80;99.90;;;;;;5084560;28;20474;-67
2023/08/15 12:42:07;;;;;;;3.27;3.20;;;26.80;99.90;;;;;;5086499;28;20465;-67
2023/08/15 12:44:34;;;;;;;4.47;4.27;;;26.80;99.90;;;;;;5083542;28;20457;-67
2023/08/15 12:47:00;;;;;;;4.70;4.00;;;27.00;99.90;;;;;;5088580;28;20462;-69
2023/08/15 12:49:27;;;;;;;4.50;4.30;;;27.10;99.90;;;;;;5087481;28;20609;-68
2023/08/15 12:51:54;;;;;;;3.43;3.30;;;27.20;99.90;;;;;;5082913;28;20485;-69
2023/08/15 12:54:20;;;;;;;3.30;3.20;;;27.20;99.90;;;;;;5089140;28;20481;-68
2023/08/15 12:56:47;;;;;;;3.73;3.63;;;27.30;99.90;;;;;;5080277;28;20474;-69
2023/08/15 12:59:16;;;;;;;4.00;3.90;;;27.40;99.90;;;;;;5081039;28;20485;-68
2023/08/15 13:01:42;;;;;;;3.90;3.70;;;27.50;99.90;;;;;;5083333;28;20481;-68
2023/08/15 13:04:12;;;;;;;3.50;3.40;;;27.30;99.90;;;;;;5090905;28;20466;-69
2023/08/15 13:06:38;;;;;;;3.57;3.30;;;27.30;99.90;;;;;;5076884;28;20541;-69
2023/08/15 13:09:05;;;;;;;3.80;3.60;;;27.40;99.90;;;;;;5070862;28;20479;-69
2023/08/15 13:11:32;;;;;;;3.20;3.10;;;27.40;99.90;;;;;;5084547;28;20569;-68
2023/08/15 13:13:58;;;;;;;4.10;4.00;;;27.30;99.90;;;;;;5089628;28;21108;-69
2023/08/15 13:16:26;;;;;;;3.70;3.60;;;27.30;99.90;;;;;;5090306;28;20829;-69
2023/08/15 13:18:53;;;;;;;2.73;2.73;;;27.40;99.90;;;;;;5078949;28;20488;-69
2023/08/15 13:21:20;;;;;;;3.97;3.77;;;27.60;99.90;;;;;;5089936;28;20475;-68
2023/08/15 13:23:46;;;;;;;4.43;4.23;;;27.60;99.90;;;;;;5069625;28;20459;-69
2023/08/15 13:26:13;;;;;;;3.77;3.57;;;27.60;99.90;;;;;;5070133;28;20467;-68
2023/08/15 13:28:40;;;;;;;4.63;4.27;;;27.50;99.90;;;;;;5080660;28;20780;-68
2023/08/15 13:31:07;;;;;;;3.80;3.70;;;27.40;99.90;;;;;;5084137;28;20479;-68
2023/08/15 13:33:35;;;;;;;4.07;3.87;;;27.20;99.90;;;;;;5090384;28;20465;-68
2023/08/15 13:36:02;;;;;;;4.93;4.30;;;27.10;99.90;;;;;;5089907;28;20561;-69
2023/08/15 13:38:28;;;;;;;3.83;3.63;;;27.00;99.90;;;;;;5085333;28;20473;-69
2023/08/15 13:40:55;;;;;;;3.83;3.70;;;26.80;99.90;;;;;;5088986;28;20486;-68
2023/08/15 13:43:22;;;;;;;3.90;3.80;;;26.70;99.90;;;;;;5080623;28;20462;-69
2023/08/15 13:45:50;;;;;;;3.80;3.70;;;26.70;99.90;;;;;;5081059;28;20865;-68
2023/08/15 13:48:18;;;;;;;6.60;3.47;;;26.70;99.90;;;;;;5085164;28;20466;-68
2023/08/15 13:50:47;;;;;;;4.00;3.90;;;26.70;99.90;;;;;;5085960;28;20479;-69
2023/08/15 13:53:13;;;;;;;3.60;3.43;;;26.80;99.90;;;;;;5069645;28;20478;-70
2023/08/15 13:55:40;;;;;;;4.97;4.43;;;26.90;99.90;;;;;;5084788;28;20485;-68
2023/08/15 13:58:07;;;;;;;3.93;3.70;;;27.10;99.90;;;;;;5085956;28;20474;-69
2023/08/15 14:00:35;;;;;;;5.97;4.33;;;27.30;99.90;;;;;;5082208;28;20475;-68
2023/08/15 14:03:03;;;;;;;4.73;4.43;;;27.30;99.90;;;;;;5090006;28;20457;-69
2023/08/15 14:05:29;;;;;;;5.00;4.70;;;27.00;99.90;;;;;;5089626;28;20462;-68
2023/08/15 14:07:57;;;;;;;5.00;4.73;;;27.00;99.90;;;;;;5088407;28;20470;-69
2023/08/15 14:10:25;;;;;;;5.20;4.90;;;26.90;99.90;;;;;;5088893;28;20487;-69
2023/08/15 14:12:52;;;;;;;4.40;4.10;;;27.00;99.90;;;;;;5081290;28;20511;-69
2023/08/15 14:15:19;;;;;;;4.83;4.50;;;27.00;99.90;;;;;;5082167;28;20469;-69
2023/08/15 14:17:45;;;;;;;4.40;4.20;;;27.20;99.90;;;;;;5075867;28;20590;-68
2023/08/15 14:20:12;;;;;;;5.00;4.80;;;27.30;99.90;;;;;;5082907;28;20472;-68
2023/08/15 14:22:39;;;;;;;3.57;3.47;;;27.60;99.90;;;;;;5089108;28;20461;-68
2023/08/15 14:25:08;;;;;;;3.93;3.83;;;27.60;99.90;;;;;;5089844;28;20469;-68
2023/08/15 14:27:35;;;;;;;4.77;4.40;;;27.80;99.90;;;;;;5087425;28;20457;-68
2023/08/15 14:30:02;;;;;;;5.00;4.80;;;27.70;99.90;;;;;;5088357;28;20489;-68
2023/08/15 14:32:29;;;;;;;4.17;4.00;;;27.70;99.90;;;;;;5088959;28;20976;-69
2023/08/15 14:34:57;;;;;;;3.80;3.60;;;27.60;99.90;;;;;;5070945;28;20465;-69
2023/08/15 14:37:24;;;;;;;3.70;3.60;;;27.80;99.90;;;;;;5079197;28;20471;-67
2023/08/15 14:39:51;;;;;;;5.27;4.93;;;27.80;99.90;;;;;;5080589;28;20531;-68
2023/08/15 14:42:18;;;;;;;4.23;4.10;;;27.70;99.90;;;;;;5093009;28;20913;-68
2023/08/15 14:44:45;;;;;;;4.60;4.27;;;27.60;99.90;;;;;;5089679;28;20454;-68
2023/08/15 14:47:15;;;;;;;4.93;4.73;;;27.50;99.90;;;;;;5087495;28;20462;-67
2023/08/15 14:49:41;;;;;;;3.60;3.47;;;27.50;99.90;;;;;;5092773;28;21032;-68
2023/08/15 14:52:09;;;;;;;4.00;3.90;;;27.50;99.90;;;;;;5092624;28;20455;-67
2023/08/15 14:54:35;;;;;;;4.20;4.00;;;27.50;99.90;;;;;;5093488;28;20530;-67
2023/08/15 14:57:02;;;;;;;4.30;3.97;;;27.50;99.90;;;;;;5085085;28;20474;-67
2023/08/15 14:59:30;;;;;;;4.13;3.83;;;27.50;99.90;;;;;;5089484;28;20554;-67
2023/08/15 15:01:58;;;;;;;3.40;3.30;;;27.40;99.90;;;;;;5088416;28;20455;-68
2023/08/15 15:04:24;;;;;;;3.30;3.20;;;27.50;99.90;;;;;;5072593;28;20490;-68
2023/08/15 15:06:51;;;;;;;3.70;3.43;;;27.60;99.90;;;;;;5089597;28;20470;-67
2023/08/15 15:09:18;;;;;;;3.03;2.83;;;27.60;99.90;;;;;;5087972;28;20482;-68
2023/08/15 15:11:45;;;;;;;3.00;2.90;;;27.60;99.90;;;;;;5083072;28;21122;-68
2023/08/15 15:14:11;;;;;;;3.73;3.53;;;27.70;99.90;;;;;;5092999;28;20462;-69
2023/08/15 15:16:39;;;;;;;3.03;2.87;;;27.60;99.90;;;;;;5088689;28;20466;-69
2023/08/15 15:19:06;;;;;;;2.77;2.63;;;27.60;99.90;;;;;;5085629;28;20992;-69
2023/08/15 15:21:33;;;;;;;3.23;3.13;;;27.60;99.90;;;;;;5083236;28;20493;-68
2023/08/15 15:23:59;;;;;;;3.40;3.20;;;27.60;99.90;;;;;;5071844;28;20466;-68
2023/08/15 15:26:26;;;;;;;2.73;2.63;;;27.50;99.90;;;;;;5085637;28;20463;-69
2023/08/15 15:28:53;;;;;;;2.87;2.70;;;27.50;99.90;;;;;;5082945;28;20470;-68
2023/08/15 15:31:20;;;;;;;2.93;2.83;;;27.40;99.90;;;;;;5087800;28;20605;-70
2023/08/15 15:33:48;;;;;;;3.10;2.83;;;27.30;99.90;;;;;;5072543;28;20455;-68
2023/08/15 15:36:14;;;;;;;2.63;2.53;;;27.20;99.90;;;;;;5079244;28;20454;-69
2023/08/15 15:38:41;;;;;;;2.67;2.57;;;27.20;99.90;;;;;;5091325;28;20950;-68
2023/08/15 15:41:08;;;;;;;2.43;2.33;;;27.00;99.90;;;;;;5083656;28;20481;-68
2023/08/15 15:43:35;;;;;;;2.53;2.50;;;27.00;99.90;;;;;;5088814;28;20553;-68
2023/08/15 15:46:02;;;;;;;2.30;2.20;;;26.90;99.90;;;;;;5088820;28;20995;-68
2023/08/15 15:48:28;;;;;;;4.40;2.30;;;26.80;99.90;;;;;;5086318;28;20451;-67
2023/08/15 15:50:56;;;;;;;2.70;2.60;;;26.80;99.90;;;;;;5084865;28;20485;-69
2023/08/15 15:53:23;;;;;;;2.13;2.13;;;26.70;99.90;;;;;;5079369;28;20474;-68
2023/08/15 15:55:50;;;;;;;2.43;2.30;;;26.60;99.90;;;;;;5084623;28;20466;-68
2023/08/15 15:58:16;;;;;;;2.60;2.50;;;26.50;99.90;;;;;;5088125;28;20481;-68
2023/08/15 16:00:43;;;;;;;2.10;2.10;;;26.40;99.90;;;;;;5087201;28;20493;-69
2023/08/15 16:03:10;;;;;;;1.90;1.90;;;26.30;99.90;;;;;;5080988;28;20471;-68
2023/08/15 16:05:36;;;;;;;2.40;2.30;;;26.20;99.90;;;;;;5085460;28;20476;-68
2023/08/15 16:08:05;;;;;;;2.50;2.40;;;26.30;99.90;;;;;;5086101;28;20472;-68
2023/08/15 16:10:31;;;;;;;3.03;2.30;;;26.30;99.90;;;;;;5085030;28;21398;-69
2023/08/15 16:12:58;;;;;;;2.40;2.30;;;26.40;99.90;;;;;;5087693;28;20465;-68
2023/08/15 16:15:25;;;;;;;2.37;2.37;;;26.40;99.90;;;;;;5091288;28;20460;-67
2023/08/15 16:17:51;;;;;;;1.83;1.83;;;26.50;99.90;;;;;;5080088;28;20465;-67
2023/08/15 16:20:18;;;;;;;2.17;1.80;;;26.40;99.90;;;;;;5076279;28;20479;-67
2023/08/15 16:22:45;;;;;;;2.10;2.10;;;26.30;99.90;;;;;;5088424;28;20464;-67
2023/08/15 16:25:13;;;;;;;3.00;2.30;;;26.30;99.90;;;;;;5089816;28;20600;-67
2023/08/15 16:27:39;;;;;;;1.83;1.83;;;26.30;99.90;;;;;;5091464;28;20460;-68
2023/08/15 16:30:08;;;;;;;1.93;1.83;;;26.30;99.90;;;;;;5088091;28;20948;-68
2023/08/15 16:32:34;;;;;;;2.30;2.20;;;26.30;99.90;;;;;;5089795;28;20464;-68
2023/08/15 16:35:01;;;;;;;2.10;2.00;;;26.40;99.90;;;;;;5091203;28;20492;-68
2023/08/15 16:37:28;;;;;;;1.93;1.90;;;26.50;99.90;;;;;;5089682;28;20477;-67
2023/08/15 16:39:54;;;;;;;1.57;1.57;;;26.60;99.90;;;;;;5084946;28;20486;-68
2023/08/15 16:42:22;;;;;;;2.23;2.13;;;26.60;99.90;;;;;;5084817;28;20465;-68
2023/08/15 16:44:49;;;;;;;4.03;2.23;;;26.50;99.90;;;;;;5078976;28;20467;-68
2023/08/15 16:47:16;;;;;;;2.20;2.20;;;26.30;99.90;;;;;;5082732;28;20465;-68
2023/08/15 16:49:42;;;;;;;1.60;1.50;;;26.20;99.90;;;;;;5089845;28;20493;-68
2023/08/15 16:52:09;;;;;;;2.03;2.03;;;26.10;99.90;;;;;;5075087;28;20468;-68
2023/08/15 16:54:36;;;;;;;2.00;2.00;;;26.10;99.90;;;;;;5084190;28;20940;-67
2023/08/15 16:57:02;;;;;;;2.13;1.57;;;26.00;99.90;;;;;;5091154;28;20469;-69
2023/08/15 16:59:30;;;;;;;1.80;1.80;;;25.90;99.90;;;;;;5087305;28;20472;-68
2023/08/15 17:01:57;;;;;;;2.60;1.93;;;25.90;99.90;;;;;;5082407;28;20463;-68
2023/08/15 17:04:25;;;;;;;1.83;1.83;;;25.80;99.90;;;;;;5089792;28;20474;-69
2023/08/15 17:06:51;;;;;;;1.70;1.70;;;25.80;99.90;;;;;;5090030;28;20468;-68
2023/08/15 17:09:18;;;;;;;2.43;1.67;;;25.80;99.90;;;;;;5088351;28;20466;-67